Latest Weather Observations for Cape Grim

IDT60801

Issued at 1:11 am EST Saturday 15 August 2020 (issued every 10 minutes, with the page automatically refreshed every 10 minutes)

About weather observations | Map of weather stations | Latest weather observations for TAS | Other Formats
Station Details ID: 091331 Name: CAPE GRIM Lat: -40.68 Lon: 144.69 Height: 86.0 m
Data from the previous 72 hours. | See also: Recent months at Cape Grim
Date/Time
EST
Temp
°C
App
Temp
°C
Dew
Point
°C
Rel
Hum
%
Delta-T
°C
Wind Press
QNH
hPa
Press
MSL
hPa
Rain since
9am
mm
Dir  Spd
km/h
Gust
km/h
Spd
kts
Gust
kts
15/01:00am 10.8 6.8 10.5 98 0.2 ENE 22 28 12 15 1012.5 1012.6 1.6
15/12:30am 11.0 6.3 10.7 98 0.2 E 26 30 14 16 1012.7 1012.8 1.6
15/12:00am 10.9 6.2 10.6 98 0.2 E 26 30 14 16 1012.8 1012.9 1.6
 
Date/Time
EST
Temp
°C
App
Temp
°C
Dew
Point
°C
Rel
Hum
%
Delta-T
°C
Wind Press
QNH
hPa
Press
MSL
hPa
Rain since
9am
mm
Dir  Spd
km/h
Gust
km/h
Spd
kts
Gust
kts
14/11:30pm 10.7 6.3 10.4 98 0.2 E 24 30 13 16 1012.9 1013.0 1.6
14/11:00pm 10.6 6.6 10.3 98 0.2 E 22 26 12 14 1013.0 1013.1 1.6
14/10:30pm 10.6 6.6 10.3 98 0.2 ENE 22 26 12 14 1013.0 1013.1 1.6
14/10:00pm 10.7 6.7 10.4 98 0.2 ENE 22 24 12 13 1013.1 1013.2 1.6
14/09:30pm 10.8 7.4 10.5 98 0.2 ENE 19 22 10 12 1013.1 1013.2 1.6
14/09:00pm 10.7 7.3 10.4 98 0.2 ENE 19 22 10 12 1012.9 1013.0 1.6
14/08:30pm 10.7 6.7 10.4 98 0.2 ENE 22 26 12 14 1012.7 1012.8 1.6
14/08:00pm 10.7 7.6 10.4 98 0.2 ENE 17 22 9 12 1012.6 1012.7 1.6
14/07:30pm 10.9 7.9 10.6 98 0.2 NE 17 22 9 12 1012.5 1012.6 1.6
14/07:00pm 11.1 7.6 10.8 98 0.2 ENE 20 24 11 13 1012.2 1012.3 1.6
14/06:30pm 11.2 7.3 10.9 98 0.2 ENE 22 28 12 15 1011.8 1011.9 1.6
14/06:00pm 11.3 7.5 11.0 98 0.2 ENE 22 28 12 15 1011.7 1011.8 1.4
14/05:30pm 11.3 7.5 11.0 98 0.2 ENE 22 26 12 14 1011.4 1011.5 1.4
14/05:00pm 11.4 8.5 11.1 98 0.2 NE 17 22 9 12 1011.6 1011.7 1.4
14/04:30pm 11.5 8.7 11.2 98 0.2 NE 17 22 9 12 1011.6 1011.7 1.4
14/04:23pm 11.6 8.2 11.3 98 0.2 NE 20 24 11 13 1011.6 1011.7 1.4
14/04:09pm 11.7 7.6 11.4 98 0.2 NE 24 28 13 15 1011.7 1011.8 1.2
14/04:00pm 11.9 8.2 11.6 98 0.2 NE 22 28 12 15 1011.7 1011.8 0.8
14/03:30pm 12.3 8.7 11.8 97 0.3 ENE 22 28 12 15 1011.4 1011.5 0.8
14/03:00pm 12.5 9.9 12.0 97 0.3 ENE 17 20 9 11 1011.2 1011.3 0.8
14/02:30pm 12.3 9.3 12.0 98 0.2 NE 19 22 10 12 1011.2 1011.3 0.8
14/02:18pm 12.2 9.2 11.9 98 0.2 ENE 19 22 10 12 1011.3 1011.4 0.8
14/02:00pm 12.2 9.0 11.9 98 0.2 NE 20 24 11 13 1011.2 1011.3 0.8
14/01:30pm 12.7 8.4 12.1 96 0.3 NE 26 30 14 16 1011.0 1011.1 0.8
14/01:27pm 12.7 8.8 12.1 96 0.3 NE 24 30 13 16 1011.0 1011.1 0.8
14/01:00pm 13.0 9.2 12.5 97 0.3 ENE 24 28 13 15 1011.2 1011.3 0.8
14/12:30pm 13.0 8.9 12.7 98 0.2 NE 26 32 14 17 1011.5 1011.6 0.8
14/12:00pm 12.5 7.5 12.2 98 0.2 NE 30 33 16 18 1011.6 1011.7 0.8
14/11:53am 12.7 8.1 12.4 98 0.2 ENE 28 33 15 18 1011.6 1011.7 0.8
14/11:39am 12.3 8.0 12.0 98 0.2 NE 26 32 14 17 1011.8 1011.9 0.8
14/11:37am 12.5 8.2 12.2 98 0.2 NE 26 32 14 17 1011.8 1011.9 0.8
14/11:30am 12.2 7.9 11.9 98 0.2 NE 26 32 14 17 1011.9 1012.0 0.6
14/11:00am 11.8 7.3 11.5 98 0.2 NE 26 35 14 19 1012.1 1012.2 0.4
14/10:30am 11.6 6.3 11.3 98 0.2 NE 30 37 16 20 1012.1 1012.2 0.0
14/10:01am 11.8 6.0 11.5 98 0.2 ENE 33 41 18 22 1011.8 1011.9 0.0
14/10:00am 11.8 6.0 11.5 98 0.2 ENE 33 41 18 22 1011.8 1011.9 0.0
14/09:30am 11.7 5.9 11.4 98 0.2 ENE 33 41 18 22 1011.8 1011.9 0.0
14/09:00am 11.4 6.8 11.1 98 0.2 ENE 26 33 14 18 1011.8 1011.9 11.8
14/08:30am 11.2 6.6 10.9 98 0.2 ENE 26 32 14 17 1011.5 1011.6 11.8
14/08:00am 11.2 6.2 10.9 98 0.2 NE 28 33 15 18 1011.4 1011.5 11.8
14/07:30am 10.8 7.2 10.5 98 0.2 ENE 20 28 11 15 1011.1 1011.2 11.8
14/07:01am 10.8 7.2 10.5 98 0.2 NE 20 26 11 14 1011.0 1011.1 11.8
14/07:00am 10.8 7.2 10.5 98 0.2 NE 20 26 11 14 1011.0 1011.1 11.8
14/06:30am 10.8 6.8 10.5 98 0.2 ENE 22 28 12 15 1010.5 1010.6 11.8
14/06:15am 10.7 7.1 10.4 98 0.2 ENE 20 24 11 13 1010.5 1010.6 11.8
14/06:00am 10.7 6.3 10.4 98 0.2 ENE 24 30 13 16 1010.4 1010.5 11.8
14/05:30am 10.8 6.4 10.5 98 0.2 E 24 28 13 15 1010.4 1010.5 11.8
14/05:15am 10.9 6.9 10.6 98 0.2 ENE 22 24 12 13 1010.5 1010.6 11.8
14/05:00am 10.8 6.8 10.5 98 0.2 E 22 28 12 15 1010.4 1010.5 11.6
14/04:30am 11.0 7.1 10.7 98 0.2 E 22 26 12 14 1010.3 1010.4 11.6
14/04:00am 11.3 7.1 11.0 98 0.2 ENE 24 30 13 16 1010.5 1010.6 11.6
14/03:37am 11.0 6.3 10.7 98 0.2 E 26 30 14 16 1010.2 1010.3 11.6
14/03:30am 10.9 6.6 10.6 98 0.2 E 24 32 13 17 1010.2 1010.3 11.6
14/03:00am 10.6 6.2 10.3 98 0.2 E 24 30 13 16 1010.4 1010.5 11.6
14/02:46am 10.7 7.6 10.4 98 0.2 ENE 17 24 9 13 1010.8 1010.9 11.6
14/02:30am 10.9 8.3 10.6 98 0.2 E 15 19 8 10 1011.3 1011.4 9.6
14/02:07am 11.1 7.8 10.8 98 0.2 ENE 19 28 10 15 1011.3 1011.4 6.4
14/02:00am 11.2 7.3 10.9 98 0.2 ENE 22 28 12 15 1011.1 1011.2 6.4
14/01:34am 11.2 6.2 10.9 98 0.2 ENE 28 37 15 20 1011.1 1011.2 5.6
14/01:30am 11.2 6.2 10.9 98 0.2 ENE 28 33 15 18 1011.2 1011.3 5.2
14/01:24am 11.2 5.8 10.9 98 0.2 ENE 30 33 16 18 1011.2 1011.3 4.8
14/01:00am 10.4 5.5 10.1 98 0.2 ENE 26 32 14 17 1010.9 1011.0 3.8
14/12:30am 10.1 5.5 9.8 98 0.2 ENE 24 30 13 16 1011.0 1011.1 3.6
14/12:09am 10.2 6.0 9.9 98 0.2 ENE 22 28 12 15 1011.3 1011.4 3.6
14/12:00am 10.8 6.4 10.5 98 0.2 ENE 24 30 13 16 1011.3 1011.4 3.6
 
Date/Time
EST
Temp
°C
App
Temp
°C
Dew
Point
°C
Rel
Hum
%
Delta-T
°C
Wind Press
QNH
hPa
Press
MSL
hPa
Rain since
9am
mm
Dir  Spd
km/h
Gust
km/h
Spd
kts
Gust
kts
13/11:30pm 11.3 6.3 11.0 98 0.2 ENE 28 35 15 19 1011.4 1011.5 2.2
13/11:24pm 11.3 6.3 11.0 98 0.2 ENE 28 33 15 18 1011.4 1011.5 2.2
13/11:00pm 11.1 5.7 10.8 98 0.2 ENE 30 35 16 19 1011.4 1011.5 2.2
13/10:30pm 11.2 6.2 10.9 98 0.2 ENE 28 33 15 18 1011.6 1011.7 2.2
13/10:17pm 11.2 6.6 10.9 98 0.2 ENE 26 33 14 18 1011.7 1011.8 2.2
13/10:00pm 11.2 5.8 10.9 98 0.2 ENE 30 35 16 19 1011.6 1011.7 2.2
13/09:30pm 11.3 6.7 11.0 98 0.2 ENE 26 32 14 17 1011.8 1011.9 1.8
13/09:00pm 11.4 6.4 11.1 98 0.2 ENE 28 32 15 17 1011.6 1011.7 0.2
13/08:59pm 11.4 6.4 11.1 98 0.2 ENE 28 32 15 17 1011.6 1011.7 0.2
13/08:30pm 11.3 6.3 11.0 98 0.2 ENE 28 33 15 18 1011.4 1011.5 0.2
13/08:00pm 11.3 6.7 11.0 98 0.2 ENE 26 33 14 18 1011.3 1011.4 0.2
13/07:30pm 11.3 6.3 11.0 98 0.2 ENE 28 35 15 19 1010.9 1011.0 0.2
13/07:03pm 11.3 6.7 11.0 98 0.2 ENE 26 32 14 17 1010.8 1010.9 0.2
13/07:00pm 11.3 6.7 11.0 98 0.2 ENE 26 32 14 17 1010.7 1010.8 0.2
13/06:30pm 11.4 7.2 11.1 98 0.2 NE 24 30 13 16 1010.6 1010.7 0.2
13/06:00pm 11.4 7.2 11.1 98 0.2 ENE 24 30 13 16 1010.2 1010.3 0.2
13/05:30pm 11.5 7.3 11.2 98 0.2 ENE 24 30 13 16 1009.8 1009.9 0.2
13/05:29pm 11.5 7.3 11.2 98 0.2 ENE 24 30 13 16 1009.8 1009.9 0.2
13/05:00pm 11.8 8.5 11.5 98 0.2 ENE 20 24 11 13 1009.6 1009.7 0.2
13/04:30pm 12.0 8.6 11.4 96 0.3 NE 20 24 11 13 1009.5 1009.6 0.2
13/04:08pm 12.8 9.2 11.7 93 0.6 NE 22 26 12 14 1009.4 1009.5 0.2
13/04:00pm 12.8 8.8 11.9 94 0.5 NE 24 28 13 15 1009.5 1009.6 0.2
13/03:50pm 12.8 9.2 12.0 95 0.4 NE 22 26 12 14 1009.5 1009.6 0.2
13/03:30pm 12.5 9.3 11.9 96 0.3 NE 20 26 11 14 1009.6 1009.7 0.2
13/03:00pm 12.9 9.3 12.0 94 0.5 NE 22 26 12 14 1009.6 1009.7 0.2
13/02:30pm 13.7 11.2 12.4 92 0.7 NNE 17 20 9 11 1009.4 1009.5 0.2
13/02:00pm 14.3 11.0 11.6 84 1.5 NNE 20 26 11 14 1009.2 1009.3 0.2
13/01:30pm 13.4 9.8 11.8 90 0.9 NNE 22 28 12 15 1009.1 1009.2 0.2
13/01:00pm 13.6 9.2 11.8 89 1.0 N 26 30 14 16 1009.4 1009.5 0.2
13/12:30pm 14.0 10.6 12.6 91 0.8 N 22 26 12 14 1009.6 1009.7 0.2
13/12:00pm 13.6 9.8 12.5 93 0.6 N 24 30 13 16 1009.8 1009.9 0.2
13/11:30am 13.2 9.8 12.6 96 0.3 N 22 28 12 15 1010.0 1010.1 0.2
13/11:00am 12.8 9.0 12.5 98 0.2 N 24 30 13 16 1010.0 1010.1 0.2
13/10:33am 12.3 7.6 12.0 98 0.2 N 28 33 15 18 1009.9 1010.0 0.2
13/10:30am 12.3 7.6 12.0 98 0.2 N 28 33 15 18 1009.9 1010.0 0.2
13/10:00am 12.2 8.2 11.9 98 0.2 N 24 32 13 17 1009.9 1010.0 0.2
13/09:30am 11.6 7.1 11.3 98 0.2 N 26 33 14 18 1009.9 1010.0 0.2
13/09:00am 11.4 8.9 11.1 98 0.2 NNE 15 17 8 9 1009.7 1009.8 6.6
13/08:30am 11.3 8.4 11.0 98 0.2 NNE 17 22 9 12 1009.5 1009.6 6.2
13/08:00am 11.2 7.9 10.9 98 0.2 NNE 19 22 10 12 1009.2 1009.3 4.8
13/07:30am 11.0 8.0 10.7 98 0.2 NNE 17 20 9 11 1008.9 1009.0 4.2
13/07:00am 11.0 8.4 10.7 98 0.2 NE 15 17 8 9 1008.5 1008.6 4.0
13/06:30am 10.8 7.8 10.5 98 0.2 NE 17 19 9 10 1008.2 1008.3 4.0
13/06:00am 10.8 7.8 10.5 98 0.2 NE 17 20 9 11 1008.1 1008.2 3.8
13/05:30am 10.9 7.9 10.6 98 0.2 NE 17 19 9 10 1008.0 1008.1 3.8
13/05:00am 10.9 7.5 10.6 98 0.2 ENE 19 22 10 12 1007.8 1007.9 3.8
13/04:56am 10.9 7.9 10.6 98 0.2 ENE 17 20 9 11 1007.8 1007.9 3.8
13/04:40am 10.9 7.9 10.6 98 0.2 ENE 17 20 9 11 1007.8 1007.9 3.8
13/04:30am 10.8 7.8 10.5 98 0.2 ENE 17 20 9 11 1007.7 1007.8 3.8
13/04:23am 10.8 7.8 10.5 98 0.2 NE 17 19 9 10 1007.7 1007.8 3.8
13/04:20am 10.7 7.6 10.4 98 0.2 NE 17 19 9 10 1007.6 1007.6 3.8
13/04:00am 10.7 8.0 10.4 98 0.2 NE 15 17 8 9 1007.5 1007.5 3.6
13/03:30am 10.7 7.6 10.4 98 0.2 ENE 17 20 9 11 1007.4 1007.4 3.4
13/03:24am 10.7 7.6 10.4 98 0.2 ENE 17 19 9 10 1007.4 1007.4 3.2
13/03:00am 10.7 8.4 10.4 98 0.2 ENE 13 15 7 8 1007.8 1007.9 3.2
13/02:32am 10.9 7.9 10.6 98 0.2 NE 17 20 9 11 1007.9 1008.0 3.0
13/02:30am 10.9 7.5 10.6 98 0.2 NE 19 20 10 11 1007.9 1008.0 3.0
13/02:18am 11.0 7.6 10.7 98 0.2 NE 19 26 10 14 1008.0 1008.1 3.0
13/02:00am 11.2 7.3 10.9 98 0.2 NE 22 26 12 14 1007.9 1008.0 2.8
13/01:30am 11.0 7.6 10.7 98 0.2 NE 19 22 10 12 1007.9 1008.0 1.8
13/01:00am 10.9 7.9 10.6 98 0.2 NE 17 20 9 11 1007.9 1008.0 1.2
13/12:30am 11.0 7.4 10.7 98 0.2 NE 20 24 11 13 1008.0 1008.1 1.2
13/12:00am 10.9 7.3 10.6 98 0.2 NE 20 26 11 14 1007.9 1008.0 1.2
 
Date/Time
EST
Temp
°C
App
Temp
°C
Dew
Point
°C
Rel
Hum
%
Delta-T
°C
Wind Press
QNH
hPa
Press
MSL
hPa
Rain since
9am
mm
Dir  Spd
km/h
Gust
km/h
Spd
kts
Gust
kts
12/11:30pm 10.8 7.2 10.5 98 0.2 NE 20 24 11 13 1008.0 1008.1 1.2
12/11:00pm 10.7 7.3 10.4 98 0.2 NE 19 20 10 11 1008.0 1008.1 1.2
12/10:30pm 10.7 7.1 10.4 98 0.2 NE 20 24 11 13 1008.1 1008.2 1.2
12/10:00pm 10.9 7.3 10.6 98 0.2 NE 20 26 11 14 1008.0 1008.1 1.2
12/09:30pm 10.7 7.1 10.4 98 0.2 NE 20 24 11 13 1007.9 1008.0 1.2
12/09:00pm 10.7 7.1 10.4 98 0.2 ENE 20 26 11 14 1007.8 1007.9 1.2
12/08:30pm 10.8 7.4 10.5 98 0.2 NE 19 22 10 12 1007.8 1007.9 1.2
12/08:00pm 10.6 6.6 10.3 98 0.2 NE 22 26 12 14 1007.5 1007.5 1.2
12/07:30pm 10.5 6.4 10.2 98 0.2 NE 22 28 12 15 1007.2 1007.2 1.2
12/07:00pm 10.1 5.9 9.8 98 0.2 NE 22 26 12 14 1006.8 1006.8 1.2
12/06:30pm 10.1 5.9 9.8 98 0.2 NE 22 24 12 13 1007.0 1007.0 1.2
12/06:00pm 10.7 7.0 10.2 97 0.3 NE 20 24 11 13 1006.8 1006.8 1.2
12/05:30pm 11.1 7.0 10.2 94 0.5 NNE 22 32 12 17 1006.5 1006.5 1.2
12/05:00pm 11.4 7.0 10.5 94 0.5 NNE 24 32 13 17 1006.3 1006.3 1.2
12/04:30pm 11.9 7.3 11.0 94 0.5 NNE 26 32 14 17 1006.2 1006.2 1.2
12/04:00pm 11.4 6.3 10.6 95 0.4 N 28 33 15 18 1006.3 1006.3 1.2
12/03:30pm 11.7 6.6 10.6 93 0.6 N 28 35 15 19 1006.3 1006.3 1.2
12/03:00pm 12.0 7.0 10.9 93 0.6 N 28 35 15 19 1006.3 1006.3 1.2
12/02:36pm 12.2 7.2 10.9 92 0.7 N 28 35 15 19 1006.4 1006.4 1.2
12/02:30pm 12.3 7.4 11.2 93 0.6 N 28 35 15 19 1006.5 1006.5 1.2
12/02:00pm 12.3 7.3 11.0 92 0.7 N 28 33 15 18 1006.7 1006.7 1.2
12/01:54pm 12.3 7.3 10.9 91 0.7 N 28 35 15 19 1006.8 1006.8 1.2
12/01:30pm 12.4 7.1 11.1 92 0.7 N 30 37 16 20 1006.8 1006.8 1.2
12/01:00pm 12.0 6.6 10.9 93 0.6 N 30 35 16 19 1007.1 1007.1 1.2
12/12:30pm 12.5 7.3 11.6 94 0.5 N 30 39 16 21 1007.4 1007.4 1.2
12/12:22pm 12.0 6.3 11.2 95 0.4 N 32 39 17 21 1007.4 1007.4 1.2
12/12:00pm 11.5 5.5 10.9 96 0.3 N 33 41 18 22 1007.7 1007.8 1.2
12/11:30am 11.5 5.8 11.0 97 0.3 N 32 39 17 21 1008.0 1008.1 1.2
12/11:17am 11.3 5.4 11.0 98 0.2 N 33 41 18 22 1008.0 1008.1 1.2
12/11:13am 11.3 5.4 11.0 98 0.2 N 33 41 18 22 1008.0 1008.1 1.2
12/11:00am 11.2 4.9 10.9 98 0.2 N 35 41 19 22 1008.1 1008.2 1.2
12/10:30am 10.7 3.8 10.4 98 0.2 N 37 46 20 25 1008.4 1008.5 1.0
12/10:00am 10.7 4.2 10.4 98 0.2 N 35 43 19 23 1008.6 1008.7 0.0
12/09:30am 10.5 4.0 10.2 98 0.2 NNE 35 43 19 23 1008.8 1008.9 0.0
12/09:00am 10.2 3.6 9.9 98 0.2 NNE 35 44 19 24 1008.9 1009.0 3.6
12/08:30am 10.1 3.8 9.8 98 0.2 NNE 33 44 18 24 1009.0 1009.1 3.4
12/08:00am 10.0 3.3 9.7 98 0.2 NNE 35 41 19 22 1009.0 1009.1 2.8
12/07:30am 10.0 3.7 9.7 98 0.2 NNE 33 43 18 23 1009.0 1009.1 2.6
12/07:12am 10.0 3.7 9.7 98 0.2 NNE 33 44 18 24 1009.1 1009.2 2.4
12/07:00am 9.9 3.6 9.6 98 0.2 NNE 33 41 18 22 1009.1 1009.2 2.2
12/06:30am 9.9 4.1 9.4 97 0.2 NNE 30 35 16 19 1009.1 1009.2 2.0
12/06:00am 9.9 4.1 9.3 96 0.3 NNE 30 37 16 20 1009.1 1009.2 1.2
12/05:30am 10.1 4.3 9.5 96 0.3 N 30 37 16 20 1009.3 1009.4 1.0
12/05:00am 10.3 4.1 9.5 95 0.4 N 32 39 17 21 1009.4 1009.5 0.8
12/04:30am 10.6 4.2 9.4 92 0.6 N 33 44 18 24 1009.6 1009.7 0.4
12/04:00am 10.7 4.8 9.0 89 0.8 NNE 30 35 16 19 1009.8 1009.9 0.4
12/03:30am 10.6 4.2 8.5 87 1.0 NNE 32 39 17 21 1010.0 1010.1 0.4
12/03:00am 10.5 4.1 8.4 87 1.0 NNE 32 39 17 21 1010.1 1010.2 0.4
12/02:30am 10.7 3.8 9.0 89 0.8 NNE 35 46 19 25 1010.7 1010.8 0.2
12/02:00am 10.9 4.4 9.0 88 0.9 NNE 33 41 18 22 1011.1 1011.2 0.2
12/01:30am 11.1 4.6 8.3 83 1.4 NNE 32 41 17 22 1011.2 1011.3 0.0

Other formats

Comma delimited format used in spreadsheet applications
http://www.bom.gov.au/fwo/IDT60801/IDT60801.95954.axf

JavaScript Object Notation format (JSON) in row-major order
http://www.bom.gov.au/fwo/IDT60801/IDT60801.95954.json

Data quality

Most of these data are generated automatically and are frequently updated. Quality checks on data are not normally performed. It is possible for incorrect values to appear. Refer to information at About Latest Weather Observations and please check the disclaimer before using these data.